createdAt,value
2022-08-22T00:00:14.867Z,13.80
2022-08-22T00:01:46.164Z,13.70
2022-08-22T00:02:47.240Z,14.90
2022-08-22T00:02:57.280Z,19.60
2022-08-22T00:03:06.742Z,14.20
2022-08-22T00:04:33.323Z,13.80
2022-08-22T00:06:01.960Z,13.80
2022-08-22T00:07:07.425Z,13.80
2022-08-22T00:08:23.784Z,13.80
2022-08-22T00:09:50.541Z,13.80
2022-08-22T00:11:05.447Z,13.80
2022-08-22T00:12:26.170Z,13.80
2022-08-22T00:13:38.768Z,13.70
2022-08-22T00:14:53.418Z,13.70
2022-08-22T00:16:00.975Z,13.70
2022-08-22T00:17:17.105Z,13.70
2022-08-22T00:18:29.400Z,13.70
2022-08-22T00:19:42.963Z,13.70
2022-08-22T00:20:51.455Z,13.70
2022-08-22T00:22:21.981Z,13.70
2022-08-22T00:23:42.555Z,13.70
2022-08-22T00:25:24.842Z,13.60
2022-08-22T00:26:45.742Z,13.70
2022-08-22T00:28:03.986Z,13.60
2022-08-22T00:29:11.685Z,13.60
2022-08-22T00:30:18.284Z,13.60
2022-08-22T00:31:36.687Z,13.60
2022-08-22T00:33:03.347Z,13.60
2022-08-22T00:34:15.606Z,13.60
2022-08-22T00:35:28.416Z,13.60
2022-08-22T00:36:52.069Z,13.60
2022-08-22T00:38:03.146Z,13.60
2022-08-22T00:39:16.921Z,13.60
2022-08-22T00:40:27.865Z,13.60
2022-08-22T00:41:43.174Z,13.70
2022-08-22T00:43:17.018Z,13.60
2022-08-22T00:44:53.677Z,13.60
2022-08-22T00:46:19.153Z,13.70
2022-08-22T00:47:26.775Z,13.60
2022-08-22T00:48:47.405Z,13.60
2022-08-22T00:50:18.216Z,13.60
2022-08-22T00:51:38.014Z,13.60
2022-08-22T00:52:48.669Z,13.60
2022-08-22T00:54:06.798Z,13.60
2022-08-22T00:55:43.239Z,13.50
2022-08-22T00:57:12.007Z,13.50
2022-08-22T00:58:51.008Z,13.50
2022-08-22T01:00:04.049Z,13.50
2022-08-22T01:01:12.964Z,13.50
2022-08-22T01:02:40.953Z,13.40
2022-08-22T01:04:07.953Z,13.40
2022-08-22T01:05:38.977Z,13.40
2022-08-22T01:07:07.982Z,13.40
2022-08-22T01:08:42.537Z,13.40
2022-08-22T01:10:00.148Z,13.40
2022-08-22T01:11:18.502Z,13.40
2022-08-22T01:12:28.841Z,13.30
2022-08-22T01:14:01.838Z,13.30
2022-08-22T01:15:13.921Z,13.30
2022-08-22T01:16:27.600Z,13.30
2022-08-22T01:17:47.158Z,13.30
2022-08-22T01:19:14.762Z,13.30
2022-08-22T01:20:29.931Z,13.30
2022-08-22T01:22:00.665Z,13.30
2022-08-22T01:23:52.111Z,13.30
2022-08-22T01:25:26.796Z,13.30
2022-08-22T01:26:36.919Z,13.30
2022-08-22T01:28:13.951Z,13.20
2022-08-22T01:29:29.777Z,13.20
2022-08-22T01:31:03.600Z,13.30
2022-08-22T01:32:32.542Z,13.20
2022-08-22T01:34:12.880Z,13.30
2022-08-22T01:35:36.918Z,13.30
2022-08-22T01:37:07.702Z,13.30
2022-08-22T01:38:40.717Z,13.20
2022-08-22T01:40:13.549Z,13.20
2022-08-22T01:41:39.158Z,13.20
2022-08-22T01:43:01.975Z,13.20
2022-08-22T01:44:45.042Z,13.20
2022-08-22T01:46:02.165Z,13.10
2022-08-22T01:47:23.322Z,13.10
2022-08-22T01:48:30.552Z,13.10
2022-08-22T01:49:44.782Z,13.10
2022-08-22T01:50:46.434Z,13.10
2022-08-22T01:52:19.734Z,13.10
2022-08-22T01:53:24.561Z,13.00
2022-08-22T01:54:46.471Z,13.00
2022-08-22T01:56:03.830Z,12.90
2022-08-22T01:57:08.058Z,12.90
2022-08-22T01:58:17.842Z,12.90
2022-08-22T01:59:33.692Z,12.90
2022-08-22T02:01:08.585Z,12.90
2022-08-22T02:02:28.360Z,12.90
2022-08-22T02:04:02.402Z,12.90
2022-08-22T02:05:11.769Z,12.90
2022-08-22T02:06:22.977Z,12.90
2022-08-22T02:07:48.450Z,12.90
2022-08-22T02:09:01.486Z,12.90
2022-08-22T02:10:38.110Z,12.90
2022-08-22T02:11:49.942Z,12.90
2022-08-22T02:13:23.175Z,12.90
2022-08-22T02:14:49.243Z,12.90
2022-08-22T02:16:01.197Z,12.80
2022-08-22T02:17:08.972Z,12.90
2022-08-22T02:18:17.381Z,12.80
2022-08-22T02:19:34.013Z,12.80
2022-08-22T02:20:58.845Z,12.80
2022-08-22T02:22:07.122Z,12.80
2022-08-22T02:23:43.573Z,12.80
2022-08-22T02:24:59.037Z,12.80
2022-08-22T02:26:03.914Z,12.80
2022-08-22T02:27:35.989Z,12.80
2022-08-22T02:28:58.670Z,12.80
2022-08-22T02:30:12.523Z,12.80
2022-08-22T02:31:22.869Z,12.80
2022-08-22T02:32:35.540Z,12.80
2022-08-22T02:33:46.298Z,12.80
2022-08-22T02:35:29.557Z,12.80
2022-08-22T02:36:46.920Z,12.80
2022-08-22T02:38:07.525Z,12.70
2022-08-22T02:39:27.399Z,12.70
2022-08-22T02:41:04.035Z,12.60
2022-08-22T02:42:21.338Z,12.60
2022-08-22T02:43:37.353Z,12.60
2022-08-22T02:44:48.264Z,12.60
2022-08-22T02:45:55.965Z,12.60
2022-08-22T02:47:15.339Z,12.60
2022-08-22T02:48:32.510Z,12.60
2022-08-22T02:49:47.500Z,12.60
2022-08-22T02:51:03.673Z,12.60
2022-08-22T02:52:16.624Z,12.50
2022-08-22T02:53:30.836Z,12.60
2022-08-22T02:54:56.220Z,12.60
2022-08-22T02:56:11.498Z,12.60
2022-08-22T02:57:42.146Z,12.60
2022-08-22T02:58:59.184Z,12.50
2022-08-22T03:00:31.040Z,12.50
2022-08-22T03:01:40.986Z,12.50
2022-08-22T03:02:45.731Z,12.50
2022-08-22T03:03:48.507Z,12.50
2022-08-22T03:04:56.905Z,12.60
2022-08-22T03:06:40.036Z,12.50
2022-08-22T03:07:50.957Z,12.60
2022-08-22T03:09:20.637Z,12.60
2022-08-22T03:10:39.395Z,12.60
2022-08-22T03:11:46.578Z,12.60
2022-08-22T03:13:07.475Z,12.50
2022-08-22T03:14:15.816Z,12.50
2022-08-22T03:15:38.103Z,12.50
2022-08-22T03:16:52.748Z,12.50
2022-08-22T03:18:04.121Z,12.50
2022-08-22T03:19:42.497Z,12.50
2022-08-22T03:21:05.711Z,12.50
2022-08-22T03:22:15.554Z,12.50
2022-08-22T03:23:38.962Z,12.50
2022-08-22T03:25:11.010Z,12.50
2022-08-22T03:26:41.298Z,12.50
2022-08-22T03:28:29.011Z,12.50
2022-08-22T03:29:38.488Z,12.50
2022-08-22T03:30:55.947Z,12.50
2022-08-22T03:32:12.468Z,12.50
2022-08-22T03:33:21.385Z,12.50
2022-08-22T03:34:26.602Z,12.50
2022-08-22T03:35:32.318Z,12.50
2022-08-22T03:36:35.185Z,12.50
2022-08-22T03:37:40.383Z,12.50
2022-08-22T03:38:53.841Z,12.50
2022-08-22T03:40:21.684Z,12.50
2022-08-22T03:41:42.370Z,12.50
2022-08-22T03:43:02.705Z,12.50
2022-08-22T03:44:38.490Z,12.40
2022-08-22T03:46:22.783Z,12.40
2022-08-22T03:47:24.431Z,12.40
2022-08-22T03:48:48.629Z,12.40
2022-08-22T03:50:08.274Z,12.40
2022-08-22T03:51:24.799Z,12.40
2022-08-22T03:53:10.291Z,12.40
2022-08-22T03:54:33.031Z,12.40
2022-08-22T03:56:08.023Z,12.40
2022-08-22T03:57:24.349Z,12.30
2022-08-22T03:58:41.914Z,12.30
2022-08-22T04:00:10.483Z,12.30
2022-08-22T04:01:31.614Z,12.30
2022-08-22T04:02:52.418Z,12.30
2022-08-22T04:04:02.889Z,12.30
2022-08-22T04:05:32.398Z,12.30
2022-08-22T04:07:17.016Z,12.30
2022-08-22T04:08:54.026Z,12.30
2022-08-22T04:10:43.997Z,12.30
2022-08-22T04:12:04.082Z,12.20
2022-08-22T04:13:43.845Z,12.20
2022-08-22T04:15:25.906Z,12.20
2022-08-22T04:16:49.674Z,12.20
2022-08-22T04:18:12.543Z,12.20
2022-08-22T04:19:33.279Z,12.10
2022-08-22T04:21:16.452Z,12.10
2022-08-22T04:22:42.295Z,12.10
2022-08-22T04:24:01.493Z,12.10
2022-08-22T04:25:18.258Z,12.10
2022-08-22T04:26:45.297Z,12.10
2022-08-22T04:28:01.056Z,12.10
2022-08-22T04:29:21.981Z,12.10
2022-08-22T04:30:50.675Z,12.10
2022-08-22T04:32:14.531Z,12.10
2022-08-22T04:33:45.596Z,12.10
2022-08-22T04:35:01.811Z,12.00
2022-08-22T04:36:39.711Z,12.00
2022-08-22T04:37:48.097Z,12.00
2022-08-22T04:38:56.827Z,12.00
2022-08-22T04:40:37.785Z,12.00
2022-08-22T04:42:29.199Z,11.90
2022-08-22T04:43:53.439Z,11.90
2022-08-22T04:45:03.358Z,11.90
2022-08-22T04:46:26.236Z,12.00
2022-08-22T04:48:20.273Z,12.00
2022-08-22T04:49:43.526Z,12.00
2022-08-22T04:50:54.971Z,12.00
2022-08-22T04:52:21.682Z,12.10
2022-08-22T04:53:48.111Z,12.10
2022-08-22T04:55:14.532Z,12.10
2022-08-22T04:56:44.046Z,12.10
2022-08-22T04:58:06.455Z,12.10
2022-08-22T04:59:13.396Z,12.10
2022-08-22T05:00:16.422Z,12.10
2022-08-22T05:01:23.300Z,12.10
2022-08-22T05:02:31.097Z,12.10
2022-08-22T05:03:39.917Z,12.10
2022-08-22T05:04:57.098Z,12.10
2022-08-22T05:06:02.222Z,12.10
2022-08-22T05:07:41.374Z,12.20
2022-08-22T05:13:39.408Z,12.20
2022-08-22T05:14:54.991Z,12.20
2022-08-22T05:16:03.294Z,12.30
2022-08-22T05:17:15.517Z,12.30
2022-08-22T05:18:31.897Z,12.30
2022-08-22T05:19:40.099Z,12.30
2022-08-22T05:20:47.457Z,12.40
2022-08-22T05:21:52.042Z,12.40
2022-08-22T05:23:00.866Z,12.50
2022-08-22T05:24:09.926Z,12.50
2022-08-22T05:25:26.524Z,12.50
2022-08-22T05:26:34.138Z,12.60
2022-08-22T05:27:42.405Z,12.60
2022-08-22T05:28:56.598Z,12.70
2022-08-22T05:30:13.434Z,12.70
2022-08-22T05:31:23.978Z,12.80
2022-08-22T05:32:33.592Z,12.80
2022-08-22T05:33:50.702Z,12.80
2022-08-22T05:34:57.785Z,12.80
2022-08-22T05:36:06.109Z,12.80
2022-08-22T05:37:25.656Z,12.90
2022-08-22T05:38:34.447Z,12.90
2022-08-22T05:39:40.179Z,12.90
2022-08-22T05:40:43.476Z,12.90
2022-08-22T05:41:45.864Z,13.00
2022-08-22T05:42:48.022Z,13.00
2022-08-22T05:43:51.447Z,13.00
2022-08-22T05:44:55.174Z,13.00
2022-08-22T05:45:58.715Z,13.10
2022-08-22T05:47:16.249Z,13.10
2022-08-22T05:48:27.858Z,13.10
2022-08-22T05:49:48.861Z,13.20
2022-08-22T05:51:04.572Z,13.30
2022-08-22T05:52:22.763Z,13.30
2022-08-22T05:53:44.213Z,13.40
2022-08-22T05:55:06.869Z,13.40
2022-08-22T05:56:19.154Z,13.50
2022-08-22T05:57:30.133Z,13.60
2022-08-22T05:58:55.808Z,13.60
2022-08-22T06:00:14.940Z,13.70
2022-08-22T06:01:38.156Z,13.80
2022-08-22T06:03:20.899Z,13.80
2022-08-22T06:04:51.219Z,13.90
2022-08-22T06:05:56.378Z,14.00
2022-08-22T06:07:18.463Z,14.10
2022-08-22T06:08:40.971Z,14.10
2022-08-22T06:09:48.347Z,14.20
2022-08-22T06:10:56.625Z,14.20
2022-08-22T06:12:07.406Z,14.30
2022-08-22T06:13:26.773Z,14.40
2022-08-22T06:14:31.575Z,14.50
2022-08-22T06:15:47.793Z,14.60
2022-08-22T06:17:10.183Z,14.60
2022-08-22T06:18:21.020Z,14.70
2022-08-22T06:19:23.835Z,14.80
2022-08-22T06:20:46.656Z,14.90
2022-08-22T06:21:51.786Z,14.90
2022-08-22T06:22:57.946Z,15.00
2022-08-22T06:24:01.648Z,15.10
2022-08-22T06:25:12.799Z,15.20
2022-08-22T06:26:20.579Z,15.20
2022-08-22T06:27:27.078Z,15.30
2022-08-22T06:28:55.453Z,15.40
2022-08-22T06:30:01.003Z,15.50
2022-08-22T06:31:04.577Z,15.60
2022-08-22T06:32:34.142Z,15.70
2022-08-22T06:33:54.452Z,15.80
2022-08-22T06:35:04.051Z,15.90
2022-08-22T06:36:32.270Z,15.90
2022-08-22T06:37:39.681Z,16.00
2022-08-22T06:38:56.450Z,16.10
2022-08-22T06:39:59.825Z,16.20
2022-08-22T06:41:06.774Z,16.30
2022-08-22T06:42:33.238Z,16.30
2022-08-22T06:43:42.310Z,16.40
2022-08-22T06:44:50.516Z,16.40
2022-08-22T06:45:53.269Z,16.50
2022-08-22T06:46:58.617Z,16.60
2022-08-22T06:48:00.970Z,16.60
2022-08-22T06:49:05.394Z,16.70
2022-08-22T06:50:14.162Z,16.80
2022-08-22T06:51:17.874Z,16.80
2022-08-22T06:52:23.577Z,16.90
2022-08-22T06:53:34.204Z,17.00
2022-08-22T06:54:46.391Z,17.00
2022-08-22T06:55:52.158Z,17.10
2022-08-22T06:56:55.404Z,17.20
2022-08-22T06:58:03.995Z,17.20
2022-08-22T06:59:12.522Z,17.30
2022-08-22T07:00:16.406Z,17.40
2022-08-22T07:01:25.372Z,17.60
2022-08-22T07:02:36.352Z,17.70
2022-08-22T07:03:49.814Z,17.70
2022-08-22T07:04:52.010Z,17.90
2022-08-22T07:05:55.891Z,18.00
2022-08-22T07:07:01.108Z,18.00
2022-08-22T07:08:19.295Z,18.10
2022-08-22T07:09:24.006Z,18.30
2022-08-22T07:10:26.199Z,18.40
2022-08-22T07:11:34.702Z,18.50
2022-08-22T07:12:39.176Z,18.70
2022-08-22T07:13:46.266Z,18.70
2022-08-22T07:14:50.987Z,18.80
2022-08-22T07:15:56.847Z,18.90
2022-08-22T07:17:03.550Z,19.00
2022-08-22T07:18:15.346Z,19.00
2022-08-22T07:19:36.983Z,19.10
2022-08-22T07:20:45.161Z,19.20
2022-08-22T07:21:48.615Z,19.20
2022-08-22T07:23:07.414Z,19.40
2022-08-22T07:24:11.182Z,19.40
2022-08-22T07:25:15.766Z,19.50
2022-08-22T07:26:26.990Z,19.50
2022-08-22T07:27:48.781Z,19.60
2022-08-22T07:28:59.026Z,19.70
2022-08-22T07:30:12.904Z,19.80
2022-08-22T07:31:26.592Z,19.90
2022-08-22T07:33:25.995Z,19.90
2022-08-22T07:34:37.572Z,20.00
2022-08-22T07:35:53.256Z,20.10
2022-08-22T07:36:58.899Z,20.20
2022-08-22T07:38:23.643Z,20.20
2022-08-22T07:39:28.554Z,20.30
2022-08-22T07:40:42.206Z,20.30
2022-08-22T07:42:07.145Z,20.30
2022-08-22T07:43:12.489Z,20.40
2022-08-22T07:44:19.568Z,20.50
2022-08-22T07:45:47.636Z,20.60
2022-08-22T07:46:58.632Z,20.60
2022-08-22T07:48:06.764Z,20.70
2022-08-22T07:49:52.655Z,20.80
2022-08-22T07:51:04.419Z,20.90
2022-08-22T07:52:11.158Z,21.00
2022-08-22T07:53:42.021Z,21.10
2022-08-22T07:54:50.581Z,21.20
2022-08-22T07:55:55.364Z,21.30
2022-08-22T07:57:04.254Z,21.30
2022-08-22T07:58:07.941Z,21.40
2022-08-22T07:59:17.183Z,21.40
2022-08-22T08:00:21.235Z,21.50
2022-08-22T08:01:25.381Z,21.50
2022-08-22T08:02:28.637Z,21.60
2022-08-22T08:03:31.389Z,21.70
2022-08-22T08:04:40.039Z,21.80
2022-08-22T08:05:44.683Z,21.90
2022-08-22T08:06:53.295Z,21.90
2022-08-22T08:07:56.650Z,22.00
2022-08-22T08:08:58.887Z,22.10
2022-08-22T08:10:13.073Z,22.10
2022-08-22T08:11:16.978Z,22.20
2022-08-22T08:12:26.048Z,22.30
2022-08-22T08:13:35.619Z,22.40
2022-08-22T08:14:40.605Z,22.50
2022-08-22T08:15:45.356Z,22.60
2022-08-22T08:17:03.186Z,22.70
2022-08-22T08:18:21.899Z,22.80
2022-08-22T08:19:25.361Z,22.90
2022-08-22T08:20:29.206Z,23.00
2022-08-22T08:21:37.412Z,23.10
2022-08-22T08:22:42.891Z,23.20
2022-08-22T08:23:46.755Z,23.20
2022-08-22T08:24:50.378Z,23.30
2022-08-22T08:26:11.412Z,23.40
2022-08-22T08:27:39.766Z,23.50
2022-08-22T08:28:52.100Z,23.60
2022-08-22T08:30:02.517Z,23.70
2022-08-22T08:31:25.249Z,23.70
2022-08-22T08:32:32.042Z,23.80
2022-08-22T08:33:37.707Z,23.90
2022-08-22T08:34:40.363Z,23.90
2022-08-22T08:36:02.617Z,24.00
2022-08-22T08:37:20.316Z,24.10
2022-08-22T08:38:27.832Z,24.20
2022-08-22T08:39:39.184Z,24.30
2022-08-22T08:41:02.547Z,24.30
2022-08-22T08:42:10.786Z,24.40
2022-08-22T08:43:34.926Z,24.50
2022-08-22T08:44:57.673Z,24.60
2022-08-22T08:46:18.634Z,24.70
2022-08-22T08:47:34.185Z,24.80
2022-08-22T08:48:49.715Z,24.90
2022-08-22T08:50:20.603Z,25.00
2022-08-22T08:52:08.209Z,25.00
2022-08-22T08:53:37.900Z,25.10
2022-08-22T08:54:55.559Z,25.20
2022-08-22T08:56:15.623Z,25.30
2022-08-22T08:57:59.041Z,25.40
2022-08-22T08:59:45.795Z,25.40
2022-08-22T09:01:19.548Z,25.50
2022-08-22T09:02:38.532Z,25.50
2022-08-22T09:04:15.370Z,25.60
2022-08-22T09:05:47.233Z,25.70
2022-08-22T09:07:07.933Z,25.70
2022-08-22T09:08:34.488Z,25.80
2022-08-22T09:09:57.677Z,25.90
2022-08-22T09:11:28.289Z,25.90
2022-08-22T09:13:12.186Z,26.00
2022-08-22T09:14:35.892Z,26.00
2022-08-22T09:16:14.701Z,26.00
2022-08-22T09:17:37.232Z,26.10
2022-08-22T09:19:06.449Z,26.20
2022-08-22T09:20:20.538Z,26.20
2022-08-22T09:21:51.630Z,26.30
2022-08-22T09:23:14.491Z,26.30
2022-08-22T09:24:43.575Z,26.30
2022-08-22T09:25:51.100Z,26.40
2022-08-22T09:27:03.675Z,26.40
2022-08-22T09:28:28.402Z,26.50
2022-08-22T09:31:47.404Z,26.60
2022-08-22T09:32:56.470Z,26.60
2022-08-22T09:34:16.834Z,26.70
2022-08-22T09:35:53.692Z,26.80
2022-08-22T09:37:21.586Z,26.90
2022-08-22T09:38:33.408Z,26.80
2022-08-22T09:40:00.825Z,26.80
2022-08-22T09:41:26.366Z,26.90
2022-08-22T09:42:46.421Z,26.90
2022-08-22T09:43:57.478Z,27.00
2022-08-22T09:45:05.397Z,27.10
2022-08-22T09:46:16.470Z,27.10
2022-08-22T09:47:27.123Z,27.10
2022-08-22T09:49:11.184Z,27.10
2022-08-22T09:50:30.837Z,27.20
2022-08-22T09:51:50.230Z,27.30
2022-08-22T09:53:16.773Z,27.40
2022-08-22T09:54:45.607Z,27.60
2022-08-22T09:56:11.557Z,27.60
2022-08-22T09:57:24.011Z,27.70
2022-08-22T09:58:31.774Z,27.80
2022-08-22T10:00:11.386Z,27.80
2022-08-22T10:01:23.557Z,27.80
2022-08-22T10:02:32.265Z,27.80
2022-08-22T10:04:05.880Z,27.80
2022-08-22T10:05:40.592Z,27.80
2022-08-22T10:07:06.416Z,27.80
2022-08-22T10:08:19.540Z,27.90
2022-08-22T10:09:46.296Z,27.90
2022-08-22T10:11:18.887Z,27.90
2022-08-22T10:12:42.711Z,28.00
2022-08-22T10:14:09.937Z,28.10
2022-08-22T10:15:30.437Z,28.10
2022-08-22T10:16:47.321Z,28.30
2022-08-22T10:18:14.426Z,28.30
2022-08-22T10:19:38.126Z,28.40
2022-08-22T10:21:01.484Z,28.40
2022-08-22T10:22:44.595Z,28.40
2022-08-22T10:24:07.181Z,28.40
2022-08-22T10:25:36.621Z,28.30
2022-08-22T10:26:50.963Z,28.30
2022-08-22T10:28:02.997Z,28.20
2022-08-22T10:29:35.809Z,28.20
2022-08-22T10:30:54.869Z,28.30
2022-08-22T10:32:13.930Z,28.50
2022-08-22T10:33:39.919Z,28.60
2022-08-22T10:34:47.351Z,28.70
2022-08-22T10:36:17.732Z,28.90
2022-08-22T10:37:46.617Z,29.00
2022-08-22T10:38:54.944Z,29.10
2022-08-22T10:40:22.072Z,29.00
2022-08-22T10:41:52.762Z,28.90
2022-08-22T10:43:03.304Z,28.70
2022-08-22T10:44:32.885Z,28.70
2022-08-22T10:45:44.628Z,28.60
2022-08-22T10:47:06.841Z,28.60
2022-08-22T10:48:10.152Z,28.70
2022-08-22T10:49:28.672Z,28.70
2022-08-22T10:50:36.504Z,28.70
2022-08-22T10:51:55.253Z,28.70
2022-08-22T10:53:29.553Z,28.70
2022-08-22T10:54:31.446Z,28.80
2022-08-22T10:55:37.500Z,29.00
2022-08-22T10:56:50.823Z,29.10
2022-08-22T10:58:10.765Z,29.20
2022-08-22T10:59:57.203Z,29.30
2022-08-22T11:01:38.253Z,29.50
2022-08-22T11:02:46.835Z,29.60
2022-08-22T11:04:06.721Z,29.70
2022-08-22T11:05:14.721Z,29.80
2022-08-22T11:06:37.570Z,29.90
2022-08-22T11:08:06.502Z,30.00
2022-08-22T11:09:23.662Z,29.90
2022-08-22T11:10:55.751Z,30.00
2022-08-22T11:12:19.984Z,30.00
2022-08-22T11:13:21.668Z,29.90
2022-08-22T11:14:38.692Z,29.90
2022-08-22T11:15:58.790Z,29.90
2022-08-22T11:17:30.829Z,30.00
2022-08-22T11:19:03.171Z,30.00
2022-08-22T11:20:28.063Z,30.10
2022-08-22T11:21:42.999Z,30.30
2022-08-22T11:23:12.383Z,30.40
2022-08-22T11:24:54.063Z,30.50
2022-08-22T11:26:29.328Z,30.70
2022-08-22T11:27:41.166Z,31.00
2022-08-22T11:29:14.104Z,30.80
2022-08-22T11:30:31.461Z,30.60
2022-08-22T11:31:56.404Z,30.70
2022-08-22T11:33:46.188Z,30.90
2022-08-22T11:35:09.225Z,31.10
2022-08-22T11:36:31.103Z,31.30
2022-08-22T11:37:56.891Z,31.40
2022-08-22T11:39:17.944Z,31.60
2022-08-22T11:40:57.712Z,31.60
2022-08-22T11:42:26.608Z,31.70
2022-08-22T11:43:44.550Z,31.80
2022-08-22T11:44:54.020Z,31.90
2022-08-22T11:46:00.528Z,31.90
2022-08-22T11:47:07.307Z,31.90
2022-08-22T11:48:26.744Z,31.80
2022-08-22T11:49:38.472Z,31.90
2022-08-22T11:51:13.257Z,32.00
2022-08-22T11:52:42.533Z,32.00
2022-08-22T11:53:51.984Z,32.10
2022-08-22T11:55:12.610Z,32.00
2022-08-22T11:56:31.289Z,32.10
2022-08-22T11:57:41.723Z,32.20
2022-08-22T11:59:13.033Z,32.30
2022-08-22T12:00:26.711Z,32.50
2022-08-22T12:01:37.133Z,32.50
2022-08-22T12:03:06.863Z,32.40
2022-08-22T12:04:20.061Z,32.30
2022-08-22T12:05:29.189Z,32.20
2022-08-22T12:06:30.866Z,32.20
2022-08-22T12:07:40.683Z,32.20
2022-08-22T12:08:51.201Z,32.10
2022-08-22T12:09:59.339Z,32.20
2022-08-22T12:11:22.690Z,32.30
2022-08-22T12:12:48.437Z,32.40
2022-08-22T12:14:04.174Z,32.50
2022-08-22T12:15:24.491Z,32.70
2022-08-22T12:16:32.873Z,32.90
2022-08-22T12:17:55.765Z,33.00
2022-08-22T12:19:10.758Z,33.00
2022-08-22T12:20:33.710Z,33.00
2022-08-22T12:22:00.570Z,32.90
2022-08-22T12:23:38.019Z,32.90
2022-08-22T12:25:12.862Z,32.80
2022-08-22T12:26:22.077Z,32.70
2022-08-22T12:27:50.742Z,32.70
2022-08-22T12:29:03.548Z,32.80
2022-08-22T12:30:54.982Z,32.70
2022-08-22T12:32:15.028Z,32.60
2022-08-22T12:33:33.155Z,32.50
2022-08-22T12:34:41.631Z,32.40
2022-08-22T12:36:17.980Z,32.40
2022-08-22T12:37:44.942Z,32.50
2022-08-22T12:39:15.767Z,32.70
2022-08-22T12:40:51.741Z,32.90
2022-08-22T12:42:14.330Z,32.90
2022-08-22T12:43:27.954Z,33.00
2022-08-22T12:44:42.791Z,33.10
2022-08-22T12:46:03.922Z,33.20
2022-08-22T12:47:22.777Z,33.10
2022-08-22T12:48:33.560Z,32.90
2022-08-22T12:49:54.213Z,32.80
2022-08-22T12:51:17.476Z,32.80
2022-08-22T12:52:34.767Z,32.80
2022-08-22T12:53:51.050Z,32.80
2022-08-22T12:55:24.975Z,32.80
2022-08-22T12:57:04.934Z,32.90
2022-08-22T12:58:35.589Z,33.00
2022-08-22T12:59:41.814Z,33.10
2022-08-22T13:00:47.274Z,33.10
2022-08-22T13:02:00.652Z,33.20
2022-08-22T13:03:10.047Z,33.20
2022-08-22T13:04:32.511Z,33.10
2022-08-22T13:05:40.479Z,33.10
2022-08-22T13:06:49.888Z,33.20
2022-08-22T13:08:04.150Z,33.20
2022-08-22T13:09:28.698Z,33.20
2022-08-22T13:11:01.165Z,33.20
2022-08-22T13:12:20.856Z,33.30
2022-08-22T13:13:37.210Z,33.50
2022-08-22T13:14:44.219Z,33.50
2022-08-22T13:15:54.092Z,33.50
2022-08-22T13:16:59.771Z,33.50
2022-08-22T13:18:28.728Z,33.50
2022-08-22T13:19:33.086Z,33.40
2022-08-22T13:20:39.762Z,33.50
2022-08-22T13:21:49.521Z,33.60
2022-08-22T13:22:54.529Z,33.60
2022-08-22T13:24:03.946Z,33.50
2022-08-22T13:25:26.032Z,33.60
2022-08-22T13:26:34.491Z,33.70
2022-08-22T13:28:03.402Z,33.60
2022-08-22T13:30:40.742Z,33.60
2022-08-22T13:31:44.236Z,33.90
2022-08-22T13:32:49.915Z,34.00
2022-08-22T13:34:05.654Z,34.10
2022-08-22T13:35:24.445Z,34.00
2022-08-22T13:36:28.476Z,34.00
2022-08-22T13:37:53.790Z,33.90
2022-08-22T13:38:58.674Z,33.90
2022-08-22T13:40:08.802Z,33.70
2022-08-22T13:41:11.574Z,33.60
2022-08-22T13:42:31.184Z,33.40
2022-08-22T13:44:13.418Z,33.30
2022-08-22T13:45:26.821Z,33.20
2022-08-22T13:46:30.364Z,33.00
2022-08-22T13:47:53.844Z,33.00
2022-08-22T13:49:01.131Z,33.00
2022-08-22T13:50:12.579Z,32.90
2022-08-22T13:51:28.630Z,33.00
2022-08-22T13:52:57.174Z,33.00
2022-08-22T13:54:12.471Z,32.90
2022-08-22T13:55:21.280Z,33.00
2022-08-22T13:56:30.050Z,33.00
2022-08-22T13:57:37.869Z,32.90
2022-08-22T13:59:00.420Z,32.80
2022-08-22T14:00:11.172Z,32.80
2022-08-22T14:01:25.299Z,32.80
2022-08-22T14:02:47.854Z,32.80
2022-08-22T14:04:17.560Z,32.60
2022-08-22T14:05:44.357Z,32.30
2022-08-22T14:06:59.799Z,31.90
2022-08-22T14:08:34.015Z,31.70
2022-08-22T14:09:47.348Z,31.40
2022-08-22T14:11:03.468Z,31.20
2022-08-22T14:12:13.770Z,31.20
2022-08-22T14:13:35.203Z,31.10
2022-08-22T14:14:46.199Z,31.00
2022-08-22T14:15:48.299Z,30.80
2022-08-22T14:16:55.221Z,30.70
2022-08-22T14:18:10.351Z,30.50
2022-08-22T14:19:22.858Z,30.40
2022-08-22T14:20:33.531Z,30.30
2022-08-22T14:21:44.951Z,30.20
2022-08-22T14:22:58.921Z,30.20
2022-08-22T14:24:12.778Z,30.10
2022-08-22T14:25:21.502Z,29.90
2022-08-22T14:26:33.031Z,29.80
2022-08-22T14:27:52.511Z,29.80
2022-08-22T14:28:59.260Z,29.60
2022-08-22T14:30:12.233Z,29.50
2022-08-22T14:31:14.487Z,29.40
2022-08-22T14:32:19.247Z,29.40
2022-08-22T14:33:31.197Z,29.40
2022-08-22T14:34:37.520Z,29.50
2022-08-22T14:35:52.714Z,29.50
2022-08-22T14:37:00.177Z,29.50
2022-08-22T14:38:35.227Z,29.50
2022-08-22T14:39:44.509Z,29.50
2022-08-22T14:40:52.690Z,29.50
2022-08-22T14:42:12.060Z,29.50
2022-08-22T14:43:34.049Z,29.50
2022-08-22T14:45:06.772Z,29.50
2022-08-22T14:46:14.382Z,29.50
2022-08-22T14:47:54.438Z,29.50
2022-08-22T14:49:11.430Z,29.60
2022-08-22T14:50:53.148Z,29.60
2022-08-22T14:52:03.154Z,29.60
2022-08-22T14:53:09.465Z,29.60
2022-08-22T14:54:22.026Z,29.60
2022-08-22T14:55:30.511Z,29.60
2022-08-22T14:56:32.737Z,29.50
2022-08-22T14:57:41.110Z,29.40
2022-08-22T14:58:59.439Z,29.30
2022-08-22T15:00:08.706Z,29.40
2022-08-22T15:01:15.290Z,29.50
2022-08-22T15:02:27.732Z,29.60
2022-08-22T15:03:37.350Z,29.70
2022-08-22T15:04:48.243Z,29.80
2022-08-22T15:05:52.787Z,29.90
2022-08-22T15:06:58.524Z,29.90
2022-08-22T15:08:00.559Z,30.00
2022-08-22T15:09:08.099Z,30.10
2022-08-22T15:10:31.657Z,30.20
2022-08-22T15:11:36.329Z,30.20
2022-08-22T15:12:45.633Z,30.20
2022-08-22T15:14:08.215Z,30.30
2022-08-22T15:15:49.850Z,30.30
2022-08-22T15:17:06.239Z,30.30
2022-08-22T15:18:33.612Z,30.20
2022-08-22T15:19:44.505Z,30.10
2022-08-22T15:20:49.249Z,30.00
2022-08-22T15:22:19.072Z,30.00
2022-08-22T15:23:23.308Z,30.00
2022-08-22T15:24:25.158Z,30.10
2022-08-22T15:25:41.010Z,30.00
2022-08-22T15:26:55.298Z,30.00
2022-08-22T15:28:05.292Z,30.00
2022-08-22T15:29:17.306Z,30.00
2022-08-22T15:30:44.810Z,30.00
2022-08-22T15:31:50.240Z,30.10
2022-08-22T15:32:51.931Z,30.10
2022-08-22T15:34:10.657Z,30.10
2022-08-22T15:35:27.482Z,30.10
2022-08-22T15:36:31.846Z,30.10
2022-08-22T15:37:51.974Z,30.10
2022-08-22T15:39:13.804Z,30.10
2022-08-22T15:40:34.568Z,30.10
2022-08-22T15:41:37.053Z,30.00
2022-08-22T15:42:51.015Z,30.00
2022-08-22T15:44:09.454Z,29.90
2022-08-22T15:45:32.637Z,29.80
2022-08-22T15:46:58.841Z,29.80
2022-08-22T15:48:04.520Z,29.80
2022-08-22T15:49:28.754Z,29.80
2022-08-22T15:50:56.233Z,29.70
2022-08-22T15:52:00.937Z,29.60
2022-08-22T15:53:23.973Z,29.50
2022-08-22T15:54:51.309Z,29.50
2022-08-22T15:58:21.757Z,29.40
2022-08-22T15:59:44.776Z,29.30
2022-08-22T16:01:19.685Z,29.30
2022-08-22T16:02:51.448Z,29.20
2022-08-22T16:04:02.111Z,29.10
2022-08-22T16:05:10.311Z,29.10
2022-08-22T16:06:12.174Z,29.10
2022-08-22T16:07:49.157Z,29.00
2022-08-22T16:08:54.163Z,29.00
2022-08-22T16:09:58.071Z,28.90
2022-08-22T16:11:02.850Z,28.90
2022-08-22T16:12:09.785Z,28.80
2022-08-22T16:13:39.485Z,28.70
2022-08-22T16:14:41.159Z,28.70
2022-08-22T16:15:54.062Z,28.70
2022-08-22T16:17:03.596Z,28.60
2022-08-22T16:18:05.557Z,28.60
2022-08-22T16:19:16.926Z,28.50
2022-08-22T16:20:19.988Z,28.50
2022-08-22T16:21:22.138Z,28.50
2022-08-22T16:22:58.925Z,28.40
2022-08-22T16:24:00.997Z,28.40
2022-08-22T16:25:06.068Z,28.30
2022-08-22T16:26:10.135Z,28.20
2022-08-22T16:27:20.640Z,28.20
2022-08-22T16:28:56.986Z,28.20
2022-08-22T16:30:02.978Z,28.20
2022-08-22T16:31:20.731Z,28.20
2022-08-22T16:32:27.624Z,28.10
2022-08-22T16:33:33.849Z,28.10
2022-08-22T16:34:38.259Z,28.10
2022-08-22T16:36:14.770Z,28.00
2022-08-22T16:37:25.530Z,27.90
2022-08-22T16:38:36.764Z,27.80
2022-08-22T16:39:46.835Z,27.70
2022-08-22T16:40:48.578Z,27.60
2022-08-22T16:41:53.310Z,27.60
2022-08-22T16:43:16.999Z,27.50
2022-08-22T16:44:30.724Z,27.40
2022-08-22T16:45:35.157Z,27.30
2022-08-22T16:46:41.646Z,27.20